Weather observations for the past three days for
Novato / Gnoss Field
Metric (Imperial)
Date Time (pdt) Wind (kph) Vis. (km) Weather Sky Cond. Temperature (ºC) Relative Humidity Wind Chill (°C) Heat Index (°C) Pressure Precipitation (cm)
Air Dwpt 6 hour altimeter (cm) sea level (mb) 1 hr 3 hr 6 hr
Max. Min.
01 16:35 SW 22 G 35 16.09 A Few Clouds FEW045 22 11 50% 76.15 0.0
01 16:15 W 26 16.09 Mostly Cloudy FEW043 SCT050 BKN055 22 11 50% 76.15 0.0
01 15:55 SW 28 16.09 Overcast FEW043 OVC055 22 11 50% 76.15 0.0
01 15:35 SW 19 G 33 16.09 Overcast OVC050 21 11 53% 76.17 0.0
01 15:15 W 28 G 37 16.09 Mostly Cloudy SCT048 BKN055 22 11 50% 76.17 0.0
01 14:55 SW 19 16.09 Fair CLR 22 10 47% 76.17 0.0
01 14:35 W 24 G 35 16.09 A Few Clouds FEW055 23 10 44% 76.15 0.0
01 14:15 SW 26 G 39 16.09 Mostly Cloudy BKN055 23 10 44% 76.15 0.0
01 13:55 W 19 G 33 16.09 Mostly Cloudy BKN055 22 10 47% 76.17 0.0
01 13:35 SW 19 G 31 16.09 Partly Cloudy SCT055 21 11 53% 76.17 0.0
01 13:15 SW 22 G 33 16.09 A Few Clouds FEW043 FEW050 23 11 47% 76.17 0.0
01 12:55 SW 19 G 28 16.09 A Few Clouds FEW050 23 11 47% 76.17 0.0
01 12:35 SW 20 16.09 Partly Cloudy SCT050 SCT055 23 10 44% 76.2 0.0
01 12:15 W 17 G 30 16.09 Mostly Cloudy BKN050 23 11 47% 76.2 0.0
01 11:55 SW 19 G 30 16.09 Mostly Cloudy BKN050 23 12 50% 76.2 0.0
01 11:35 SW 17 16.09 Mostly Cloudy BKN050 21 12 57% 76.2 0.0
01 11:15 W 15 G 26 16.09 Overcast SCT036 OVC047 20 10 53% 76.2 0.0
01 10:55 Vrbl 9 G 20 16.09 Overcast OVC035 20 13 64% 76.2 0.0
01 10:35 W 15 16.09 Mostly Cloudy BKN033 BKN041 BKN050 21 13 60% 76.17 0.0
01 10:15 SW 20 16.09 Overcast BKN031 BKN036 OVC049 20 12 60% 76.17 0.0
01 09:55 SW 13 16.09 Overcast FEW027 SCT032 OVC047 19 13 68% 76.17 0.0
01 09:35 SW 11 16.09 Overcast FEW027 BKN041 OVC047 19 13 68% 76.15 0.0
01 09:15 SW 11 16.09 Overcast BKN041 OVC048 19 14 73% 76.15 0.0
01 08:55 SW 13 16.09 Overcast FEW023 SCT042 OVC048 18 14 78% 76.15 0.0
01 08:35 NW 13 16.09 Overcast SCT019 OVC042 18 14 78% 76.15 0.0
01 08:15 W 13 16.09 Overcast FEW019 OVC043 18 14 78% 76.12 0.0
01 07:55 SW 17 16.09 Overcast OVC042 17 14 83% 76.1 0.0
01 07:35 W 9 G 20 16.09 Overcast OVC040 17 14 83% 76.07 0.0
01 07:15 SW 15 16.09 Overcast OVC039 16 14 88% 76.07 0.0
01 06:55 SW 17 16.09 Overcast OVC039 16 14 88% 76.05 0.0
01 06:35 SW 15 G 24 16.09 Overcast OVC039 16 14 88% 76.02 0.0
01 06:15 SW 11 16.09 Overcast OVC040 15 13 88% 76.02 0.0
01 05:55 SW 15 16.09 Mostly Cloudy BKN040 16 13 83% 76.02 0.0
01 05:35 SW 19 16.09 Partly Cloudy SCT036 16 13 83% 76 0.0
01 05:15 W 13 G 22 16.09 Partly Cloudy SCT036 16 13 83% 76 0.0
01 04:55 SW 13 16.09 Overcast FEW022 OVC035 17 13 77% 76 0.0
01 04:35 NW 6 16.09 Overcast FEW021 OVC035 17 14 83% 76 0.0
01 04:15 Calm 16.09 Overcast OVC036 17 13 77% 76.02 0.0
01 03:55 Vrbl 7 16.09 Overcast OVC035 17 13 77% 76.02 0.0
01 03:35 S 7 16.09 Overcast OVC035 17 13 77% 76.02 0.0
01 03:15 SW 11 G 22 16.09 Overcast OVC035 17 13 77% 76.02 0.0
01 02:55 SW 13 16.09 Mostly Cloudy BKN035 17 13 77% 76 0.0
01 02:35 SW 15 16.09 Partly Cloudy SCT033 16 13 83% 76 0.0
01 02:15 SW 9 16.09 Mostly Cloudy BKN033 17 13 77% 76 0.0
01 01:55 SW 9 16.09 Mostly Cloudy BKN030 BKN035 17 13 77% 76 0.0
01 01:35 SW 11 G 20 16.09 Mostly Cloudy BKN026 17 13 77% 76 0.0
01 01:15 W 17 16.09 Overcast BKN025 OVC035 17 14 83% 76 0.0
01 00:55 W 17 16.09 Overcast OVC033 17 14 83% 76 0.0
01 00:35 W 20 G 31 16.09 Mostly Cloudy BKN032 17 13 77% 75.97 0.0
01 00:15 SW 20 G 41 16.09 Partly Cloudy SCT019 SCT034 17 13 77% 75.97 0.0
31 23:55 Calm 16.09 Partly Cloudy SCT018 17 14 83% 75.97 0.0
31 23:35 W 20 16.09 Fair CLR 17 13 77% 75.97 0.0
31 23:15 W 20 G 30 16.09 A Few Clouds FEW023 17 13 77% 75.97 0.0
31 22:55 W 17 G 26 16.09 Mostly Cloudy BKN020 BKN027 17 13 77% 76 0.0
31 22:35 NW 9 16.09 Overcast OVC020 17 14 83% 76 0.0
31 22:15 Calm 16.09 Overcast OVC022 18 13 73% 76 0.0
31 21:55 Calm 16.09 Overcast OVC022 17 13 77% 76 0.0
31 21:35 SW 13 G 22 16.09 Overcast OVC023 17 13 77% 76 0.0
31 21:15 NE 6 16.09 Overcast OVC024 18 13 73% 76 0.0
31 20:55 Vrbl 6 16.09 Overcast OVC024 18 13 73% 75.97 0.0
31 20:35 Vrbl 11 16.09 Overcast OVC023 17 13 77% 75.97 0.0
31 20:15 Vrbl 13 16.09 Overcast OVC024 17 13 77% 75.95 0.0
31 19:55 W 20 16.09 Overcast OVC023 17 13 77% 75.95 0.0
31 19:35 Vrbl 11 G 28 16.09 Overcast OVC024 18 12 68% 75.95 0.0
31 19:15 W 13 G 31 16.09 Overcast OVC024 18 13 73% 75.95 0.0
31 18:55 Calm 16.09 Overcast OVC024 18 13 73% 75.95 0.0
31 18:35 SW 13 G 22 16.09 Overcast OVC025 18 13 73% 75.92 0.0
31 18:15 Vrbl 7 16.09 Mostly Cloudy BKN025 20 13 64% 75.92 0.0
31 17:55 Vrbl 9 G 26 16.09 Mostly Cloudy BKN025 20 13 64% 75.92 0.0
31 17:35 Vrbl 9 G 22 16.09 Mostly Cloudy BKN026 20 13 64% 75.95 0.0
31 17:15 SW 28 G 39 16.09 Mostly Cloudy BKN027 20 13 64% 75.95 0.0
31 16:35 W 17 G 35 16.09 Mostly Cloudy BKN029 21 13 60% 75.95 0.0
31 16:15 Vrbl 11 G 35 16.09 Mostly Cloudy BKN029 21 13 60% 75.95 0.0
31 15:55 W 20 G 35 16.09 Partly Cloudy SCT030 21 13 60% 75.95 0.0
31 15:35 SW 22 G 31 16.09 A Few Clouds FEW030 22 13 57% 75.97 0.0
31 15:15 SW 22 G 33 16.09 Partly Cloudy SCT030 22 13 57% 75.97 0.0
31 14:55 W 19 G 39 16.09 A Few Clouds FEW031 21 13 60% 76 0.0
31 14:35 W 19 G 41 16.09 Mostly Cloudy BKN030 21 13 60% 76 0.0
31 14:15 W 24 G 35 16.09 Mostly Cloudy BKN030 22 13 57% 76 0.0
31 13:55 SW 31 16.09 A Few Clouds FEW031 21 13 60% 76 0.0
31 13:35 SW 28 16.09 A Few Clouds FEW030 21 13 60% 76 0.0
31 13:15 SW 26 16.09 A Few Clouds FEW028 21 13 60% 76 0.0
31 12:55 SW 26 16.09 Mostly Cloudy BKN027 21 13 60% 76 0.0
31 12:35 W 11 G 24 16.09 Mostly Cloudy BKN024 20 13 64% 76.02 0.0
31 12:15 SW 17 G 28 16.09 Overcast OVC021 19 13 68% 76.05 0.0
31 11:55 SW 19 16.09 Overcast OVC019 18 13 73% 76.05 0.0
31 11:35 SW 20 16.09 Overcast OVC017 17 12 73% 76.05 0.0
31 11:15 SW 17 16.09 Overcast OVC017 17 12 73% 76.05 0.0
31 10:55 SW 13 G 26 16.09 Overcast OVC016 16 12 77% 76.05 0.0
31 10:35 SW 17 16.09 Overcast OVC014 16 12 77% 76.05 0.0
31 10:15 W 15 16.09 Overcast OVC014 15 12 82% 76.05 0.0
31 09:55 SW 19 16.09 Overcast OVC015 16 12 77% 76.02 0.0
31 09:35 SW 15 16.09 Overcast OVC014 16 12 77% 76 0.0
31 09:15 Calm 16.09 Overcast OVC013 15 12 82% 76 0.0
31 08:55 Calm 16.09 Overcast OVC013 15 12 82% 76 0.0
31 08:35 SE 9 16.09 Overcast OVC012 15 12 82% 76 0.0
31 08:15 SE 6 16.09 Overcast OVC011 14 12 88% 76 0.0
31 07:55 S 7 16.09 Overcast OVC010 14 12 88% 75.97 0.0
31 07:35 SW 9 16.09 Overcast OVC010 14 12 88% 75.97 0.0
31 07:15 SW 9 16.09 Overcast OVC009 14 12 88% 75.95 0.0
31 06:55 SW 13 14.48 Overcast OVC009 13 12 94% 75.95 0.0
31 06:35 SW 11 16.09 Overcast OVC009 13 12 94% 75.92 0.0
31 06:15 W 15 16.09 Overcast OVC009 13 12 94% 75.92 0.0
31 05:55 SW 17 16.09 Overcast BKN010 OVC013 12 12 100% 75.92 0.0
31 05:35 Calm 16.09 Mostly Cloudy BKN011 BKN017 11 11 100% 75.92 0.0
31 05:15 Calm 16.09 Partly Cloudy SCT012 SCT019 SCT037 11 11 100% 75.9 0.0
31 04:55 Calm 16.09 Fair CLR 11 11 100% 75.9 0.0
31 04:35 Calm 16.09 Fair CLR 10 10 100% 75.9 0.0
31 03:55 N 7 14.48 Fair CLR 11 11 100% 75.9 0.0
31 03:35 Calm 16.09 Fair CLR 11 11 100% 75.9 0.0
31 03:15 Calm 16.09 Fair CLR 12 11 94% 75.87 0.0
31 02:55 Calm 16.09 Fair CLR 11 10 94% 75.87 0.0
31 02:35 Calm 16.09 Fair CLR 11 10 94% 75.87 0.0
31 02:15 Calm 16.09 Fair CLR 12 11 94% 75.87 0.0
31 01:55 Calm 16.09 Fair CLR 12 11 94% 75.87 0.0
31 01:35 Calm 16.09 Fair CLR 12 10 88% 75.9 0.0
31 01:15 Calm 16.09 Fair CLR 12 10 88% 75.9 0.0
31 00:55 Calm 16.09 Fair CLR 12 10 88% 75.9 0.0
31 00:35 Calm 16.09 Fair CLR 12 11 94% 75.9 0.0
31 00:15 Calm 16.09 Fair CLR 13 12 94% 75.9 0.0
30 23:55 Calm 16.09 Fair CLR 12 11 94% 75.9 0.0
30 23:35 Calm 16.09 Fair CLR 13 11 88% 75.9 0.0
30 23:15 Calm 16.09 Fair CLR 13 11 88% 75.9 0.0
30 22:55 Calm 16.09 Fair CLR 14 12 88% 75.9 0.0
30 22:35 Calm 16.09 Fair CLR 14 12 88% 75.9 0.0
30 22:15 Calm 16.09 Fair CLR 15 12 82% 75.9 0.0
30 21:55 Calm 16.09 Fair CLR 15 13 88% 75.9 0.0
30 21:35 N 7 16.09 Fair CLR 15 12 82% 75.9 0.0
30 21:15 E 9 16.09 Fair CLR 16 12 77% 75.87 0.0
30 20:55 N 6 16.09 Fair CLR 16 12 77% 75.87 0.0
30 20:35 N 9 16.09 Fair CLR 17 12 73% 75.84 0.0
30 20:15 Vrbl 7 16.09 Fair CLR 18 12 68% 75.84 0.0
30 19:55 E 9 16.09 Fair CLR 19 12 64% 75.82 0.0
30 19:35 Calm 16.09 Fair CLR 20 11 56% 75.82 0.0
30 19:15 Vrbl 7 16.09 Fair CLR 20 11 56% 75.82 0.0
30 18:55 S 13 G 26 16.09 Fair CLR 22 11 50% 75.82 0.0
30 18:35 SW 20 16.09 Fair CLR 24 12 47% 25 75.82 0.0
30 18:15 SW 13 16.09 Fair CLR 25 12 44% 26 75.82 0.0
30 17:55 Vrbl 7 16.09 Fair CLR 26 13 45% 26 75.82 0.0
30 17:35 E 9 16.09 Fair CLR 26 14 48% 26 75.82 0.0
30 17:15 NE 19 16.09 Fair CLR 27 14 45% 27 75.82 0.0
30 16:55 SE 9 16.09 Fair CLR 28 13 40% 28 75.82 0.0
30 16:35 SE 6 16.09 Fair CLR 28 13 40% 28 75.84 0.0
30 16:15 Vrbl 9 G 19 16.09 Fair CLR 27 12 39% 27 75.84 0.0
30 15:55 SE 15 16.09 Fair CLR 27 13 42% 27 75.84 0.0
30 15:35 SE 17 16.09 Fair CLR 27 13 42% 27 75.87 0.0
30 15:15 SE 17 16.09 Fair CLR 27 13 42% 27 75.9 0.0
30 14:55 SE 11 16.09 Fair CLR 27 13 42% 27 75.9 0.0
30 14:35 Vrbl 7 16.09 Fair CLR 26 13 45% 26 75.92 0.0
30 14:15 E 13 16.09 Fair CLR 25 14 51% 26 75.97 0.0
30 13:55 E 17 16.09 Fair CLR 24 14 54% 25 75.97 0.0
30 13:35 E 17 16.09 Fair CLR 24 14 54% 25 75.97 0.0
30 13:15 E 17 16.09 Fair CLR 24 14 54% 25 76 0.0
30 12:55 Vrbl 9 16.09 Fair CLR 24 14 54% 25 76.02 0.0
30 12:35 E 13 G 22 16.09 Fair CLR 23 14 57% 76.02 0.0
30 12:15 E 13 16.09 Fair CLR 23 14 57% 76.05 0.0
30 11:55 E 19 16.09 Fair CLR 22 14 61% 76.05 0.0
30 11:35 Vrbl 7 16.09 Fair CLR 22 13 57% 76.05 0.0
30 11:15 Vrbl 9 16.09 Fair CLR 21 13 60% 76.05 0.0
30 10:55 Vrbl 7 16.09 Fair CLR 20 13 64% 76.05 0.0
30 10:35 SE 7 9.66 Fair with Haze CLR 19 13 68% 76.07 0.0
30 10:15 Calm 14.48 Fair CLR 19 13 68% 76.07 0.0
30 09:55 E 7 12.87 Fair CLR 18 13 73% 76.07 0.0
30 09:35 Calm 16.09 Fair CLR 17 13 77% 76.07 0.0
30 09:15 Calm 14.48 Fair CLR 17 13 77% 76.07 0.0
30 08:55 NE 6 16.09 Fair CLR 16 13 83% 76.07 0.0
30 08:35 Calm 16.09 Fair CLR 15 12 82% 76.05 0.0
30 08:15 Calm 14.48 Fair CLR 14 12 88% 76.05 0.0
30 07:55 Calm 16.09 Fair CLR 13 12 94% 76.05 0.0
30 07:35 Calm 14.48 Fair CLR 12 11 94% 76.05 0.0
30 07:15 Calm 16.09 Fair CLR 11 10 94% 76.02 0.0
30 06:55 Calm 14.48 Fair CLR 10 9 94% 76.02 0.0
30 06:35 Calm 14.48 Fair CLR 11 11 100% 76 0.0
30 06:15 N 6 16.09 Fair CLR 10 10 100% 76 0.0
30 05:55 Calm 16.09 Fair CLR 11 10 94% 75.97 0.0
30 05:35 Calm 16.09 Fair CLR 10 10 100% 75.97 0.0
30 05:15 Calm 16.09 Fair CLR 11 10 94% 75.97 0.0
30 04:55 Calm 16.09 Fair CLR 11 10 94% 75.97 0.0
30 04:35 Calm 16.09 Fair CLR 11 11 100% 75.97 0.0
30 04:15 Calm 16.09 Fair CLR 11 10 94% 75.97 0.0
30 03:55 Calm 16.09 Fair CLR 11 10 94% 75.97 0.0
30 03:35 Calm 16.09 Fair CLR 12 11 94% 75.97 0.0
30 03:15 Calm 16.09 Fair CLR 12 10 88% 75.97 0.0
30 02:55 Calm 16.09 Fair CLR 12 10 88% 75.97 0.0
30 02:35 Calm 16.09 Fair CLR 12 10 88% 75.97 0.0
30 02:15 Calm 16.09 Fair CLR 12 11 94% 75.97 0.0
30 01:55 Calm 16.09 Fair CLR 12 11 94% 75.97 0.0
30 01:35 Calm 16.09 Fair CLR 12 11 94% 75.97 0.0
30 01:15 E 7 16.09 Fair CLR 13 11 88% 75.97 0.0
30 00:55 Calm 16.09 Fair CLR 13 10 82% 75.97 0.0
30 00:35 Calm 16.09 Fair CLR 14 11 82% 75.97 0.0
30 00:15 Calm 16.09 Fair CLR 13 11 88% 75.97 0.0
29 23:55 NE 7 16.09 Fair CLR 14 12 88% 75.97 0.0
29 23:35 E 6 16.09 Fair CLR 14 12 88% 75.95 0.0
29 23:15 E 7 16.09 Fair CLR 15 12 82% 75.97 0.0
29 22:55 Calm 16.09 Fair CLR 15 12 82% 75.97 0.0
29 22:35 E 11 16.09 Fair CLR 16 11 72% 75.97 0.0
29 22:15 SE 9 16.09 Fair CLR 16 11 72% 75.97 0.0
29 21:55 E 11 16.09 Fair CLR 16 11 72% 75.97 0.0
29 21:35 NE 13 16.09 Fair CLR 16 11 72% 75.97 0.0
29 21:15 S 7 G 19 16.09 Fair CLR 17 11 68% 75.95 0.0
29 20:55 Calm 16.09 Fair CLR 17 11 68% 75.92 0.0
29 20:35 Vrbl 9 16.09 Fair CLR 18 10 60% 75.9 0.0
29 20:15 SW 15 16.09 Fair CLR 18 10 60% 75.9 0.0
29 19:55 SW 15 16.09 Fair CLR 19 11 60% 75.9 0.0
29 19:35 SW 17 16.09 Fair CLR 20 11 56% 75.87 0.0
29 19:15 SW 11 16.09 Fair CLR 20 11 56% 75.87 0.0
29 18:55 SW 20 16.09 Fair CLR 22 11 50% 75.87 0.0
29 18:35 SW 17 16.09 Fair CLR 23 11 47% 75.9 0.0
29 18:15 SW 20 16.09 Fair CLR 23 11 47% 75.9 0.0
29 17:55 SW 19 16.09 Fair CLR 24 12 47% 25 75.9 0.0
29 17:35 SW 22 16.09 Fair CLR 24 12 47% 25 75.9 0.0
29 17:15 S 22 16.09 Fair CLR 24 12 47% 25 75.9 0.0
Date Time (pdt) Wind (kph) Vis. (km) Weather Sky Cond. Air Dwpt Max. Min. Relative Humidity Wind Chill (°C) Heat Index (°C) altimeter (cm) sea level (mb) 1 hr 3 hr 6 hr
6 hour
Temperature (ºC) Pressure Precipitation (cm)